tDAR Logo tDAR digital antiquity

Lake George Sites with NYSM numbers

Part of the Lake George Survey project

Author(s): Dean Snow

Year: 1979

» Downloads & Basic Metadata

Summary

Information and documentation pertaining to sites investigated during the course of the Lake George survey project that were given New York State Museum (NYSM) numbers.


Cite this Record

Lake George Sites with NYSM numbers. Dean Snow. 1979 ( tDAR id: 371598) ; doi:10.6067/XCV8M61J7Z


Keywords


Spatial Coverage

min long: -73.916; min lat: 43.333 ; max long: -73.386; max lat: 43.662 ;

Individual & Institutional Roles

Contact(s): Dean Snow


File Information

  Name Size Creation Date Date Uploaded Access
a6015.pdf 180.48kb Nov 2, 2011 12:20:16 PM Public
a9120.pdf 1.35mb Nov 2, 2011 12:20:17 PM Public
a11714.pdf 277.96kb Nov 2, 2011 12:20:17 PM Public
a11719.pdf 670.63kb Nov 2, 2011 12:20:17 PM Public
a11720-aurora.pdf 467.47kb Nov 2, 2011 12:20:18 PM Public
a11720.pdf 1.35mb Nov 2, 2011 12:20:18 PM Public
a11721.pdf 175.28kb Nov 2, 2011 12:20:18 PM Public
a11722.pdf 181.02kb Nov 2, 2011 12:20:19 PM Public
a11723.pdf 184.55kb Nov 2, 2011 12:20:19 PM Public
a11724.pdf 843.63kb Nov 2, 2011 12:20:19 PM Public
a11724a.pdf 843.63kb Nov 2, 2011 12:20:19 PM Public
a11724b.pdf 377.42kb Nov 2, 2011 12:20:20 PM Public
a11725.pdf 176.80kb Nov 2, 2011 12:20:20 PM Public
a11727.pdf 554.09kb Nov 2, 2011 12:20:20 PM Public
a11729.pdf 1.61mb Nov 2, 2011 12:20:20 PM Public
a11730.pdf 49.18kb Nov 2, 2011 12:20:21 PM Public
a11731.pdf 49.24kb Nov 2, 2011 12:20:21 PM Public
a11732.pdf 48.34kb Nov 2, 2011 12:20:21 PM Public
a11733.pdf 281.75kb Nov 2, 2011 12:20:21 PM Public
a11735.pdf 173.22kb Nov 2, 2011 12:20:22 PM Public
a11792.pdf 461.95kb Nov 2, 2011 12:20:22 PM Public
Arizona State University The Andrew W. Mellon Foundation National Science Foundation National Endowment for the Humanities Society for American Archaeology Archaeological Institute of America